sensor_id;sensor_type;location;lat;lon;timestamp;P1;durP1;ratioP1;P2;durP2;ratioP2
19861;SDS011;10093;48.148;8.542;2023-08-21T00:01:39;14.60;;;12.20;;
19861;SDS011;10093;48.148;8.542;2023-08-21T00:04:05;14.45;;;12.30;;
19861;SDS011;10093;48.148;8.542;2023-08-21T00:06:31;18.00;;;12.30;;
19861;SDS011;10093;48.148;8.542;2023-08-21T00:08:57;14.10;;;12.63;;
19861;SDS011;10093;48.148;8.542;2023-08-21T00:11:22;14.38;;;11.35;;
19861;SDS011;10093;48.148;8.542;2023-08-21T00:13:48;14.77;;;11.25;;
19861;SDS011;10093;48.148;8.542;2023-08-21T00:16:14;16.27;;;11.85;;
19861;SDS011;10093;48.148;8.542;2023-08-21T00:18:41;13.00;;;11.60;;
19861;SDS011;10093;48.148;8.542;2023-08-21T00:21:07;15.15;;;11.90;;
19861;SDS011;10093;48.148;8.542;2023-08-21T00:23:32;14.57;;;11.55;;
19861;SDS011;10093;48.148;8.542;2023-08-21T00:25:58;15.20;;;11.63;;
19861;SDS011;10093;48.148;8.542;2023-08-21T00:28:24;17.33;;;11.80;;
19861;SDS011;10093;48.148;8.542;2023-08-21T00:30:49;16.05;;;12.23;;
19861;SDS011;10093;48.148;8.542;2023-08-21T00:33:15;13.25;;;11.45;;
19861;SDS011;10093;48.148;8.542;2023-08-21T00:35:41;16.20;;;11.10;;
19861;SDS011;10093;48.148;8.542;2023-08-21T00:38:07;15.63;;;11.70;;
19861;SDS011;10093;48.148;8.542;2023-08-21T00:40:33;13.52;;;11.23;;
19861;SDS011;10093;48.148;8.542;2023-08-21T00:42:59;13.35;;;11.90;;
19861;SDS011;10093;48.148;8.542;2023-08-21T00:45:25;17.67;;;12.90;;
19861;SDS011;10093;48.148;8.542;2023-08-21T00:47:50;14.45;;;12.07;;
19861;SDS011;10093;48.148;8.542;2023-08-21T00:50:16;15.48;;;12.20;;
19861;SDS011;10093;48.148;8.542;2023-08-21T00:52:43;13.43;;;11.93;;
19861;SDS011;10093;48.148;8.542;2023-08-21T00:55:10;15.73;;;12.30;;
19861;SDS011;10093;48.148;8.542;2023-08-21T00:57:38;14.43;;;11.95;;
19861;SDS011;10093;48.148;8.542;2023-08-21T01:00:04;14.77;;;11.73;;
19861;SDS011;10093;48.148;8.542;2023-08-21T01:02:30;16.05;;;12.95;;
19861;SDS011;10093;48.148;8.542;2023-08-21T01:04:56;14.43;;;12.13;;
19861;SDS011;10093;48.148;8.542;2023-08-21T01:07:22;14.50;;;12.07;;
19861;SDS011;10093;48.148;8.542;2023-08-21T01:10:09;14.77;;;12.70;;
19861;SDS011;10093;48.148;8.542;2023-08-21T01:13:09;15.15;;;12.40;;
19861;SDS011;10093;48.148;8.542;2023-08-21T01:15:42;15.35;;;11.93;;
19861;SDS011;10093;48.148;8.542;2023-08-21T01:18:09;16.55;;;12.25;;
19861;SDS011;10093;48.148;8.542;2023-08-21T01:20:35;18.05;;;12.65;;
19861;SDS011;10093;48.148;8.542;2023-08-21T01:23:05;15.00;;;11.70;;
19861;SDS011;10093;48.148;8.542;2023-08-21T01:25:31;14.07;;;12.55;;
19861;SDS011;10093;48.148;8.542;2023-08-21T01:27:57;14.48;;;11.80;;
19861;SDS011;10093;48.148;8.542;2023-08-21T01:30:23;13.95;;;12.32;;
19861;SDS011;10093;48.148;8.542;2023-08-21T01:35:21;15.27;;;12.70;;
19861;SDS011;10093;48.148;8.542;2023-08-21T01:37:47;16.17;;;12.35;;
19861;SDS011;10093;48.148;8.542;2023-08-21T01:40:19;14.35;;;12.75;;
19861;SDS011;10093;48.148;8.542;2023-08-21T01:42:48;18.80;;;12.73;;
19861;SDS011;10093;48.148;8.542;2023-08-21T01:45:14;15.43;;;13.43;;
19861;SDS011;10093;48.148;8.542;2023-08-21T01:47:39;17.85;;;13.32;;
19861;SDS011;10093;48.148;8.542;2023-08-21T01:50:05;18.23;;;13.75;;
19861;SDS011;10093;48.148;8.542;2023-08-21T01:52:31;17.67;;;14.20;;
19861;SDS011;10093;48.148;8.542;2023-08-21T01:54:57;15.50;;;13.57;;
19861;SDS011;10093;48.148;8.542;2023-08-21T01:57:23;16.52;;;14.02;;
19861;SDS011;10093;48.148;8.542;2023-08-21T01:59:49;15.25;;;13.50;;
19861;SDS011;10093;48.148;8.542;2023-08-21T02:02:15;18.40;;;13.65;;
19861;SDS011;10093;48.148;8.542;2023-08-21T02:04:40;14.40;;;12.75;;
19861;SDS011;10093;48.148;8.542;2023-08-21T02:07:06;15.57;;;13.40;;
19861;SDS011;10093;48.148;8.542;2023-08-21T02:09:32;14.90;;;12.60;;
19861;SDS011;10093;48.148;8.542;2023-08-21T02:11:58;19.30;;;13.57;;
19861;SDS011;10093;48.148;8.542;2023-08-21T02:14:24;17.35;;;13.80;;
19861;SDS011;10093;48.148;8.542;2023-08-21T02:16:49;15.32;;;12.65;;
19861;SDS011;10093;48.148;8.542;2023-08-21T02:19:15;18.10;;;14.98;;
19861;SDS011;10093;48.148;8.542;2023-08-21T02:21:40;15.63;;;13.45;;
19861;SDS011;10093;48.148;8.542;2023-08-21T02:24:06;15.05;;;13.45;;
19861;SDS011;10093;48.148;8.542;2023-08-21T02:26:32;14.27;;;12.68;;
19861;SDS011;10093;48.148;8.542;2023-08-21T02:28:57;17.58;;;14.50;;
19861;SDS011;10093;48.148;8.542;2023-08-21T02:31:23;17.85;;;13.15;;
19861;SDS011;10093;48.148;8.542;2023-08-21T02:33:49;17.50;;;14.07;;
19861;SDS011;10093;48.148;8.542;2023-08-21T02:36:15;15.45;;;13.85;;
19861;SDS011;10093;48.148;8.542;2023-08-21T02:38:41;20.00;;;13.10;;
19861;SDS011;10093;48.148;8.542;2023-08-21T02:41:06;14.85;;;12.80;;
19861;SDS011;10093;48.148;8.542;2023-08-21T02:43:33;16.15;;;13.23;;
19861;SDS011;10093;48.148;8.542;2023-08-21T02:45:59;14.90;;;13.15;;
19861;SDS011;10093;48.148;8.542;2023-08-21T02:48:24;15.40;;;12.82;;
19861;SDS011;10093;48.148;8.542;2023-08-21T02:50:50;14.75;;;11.93;;
19861;SDS011;10093;48.148;8.542;2023-08-21T02:53:15;14.50;;;12.70;;
19861;SDS011;10093;48.148;8.542;2023-08-21T02:55:41;15.48;;;12.73;;
19861;SDS011;10093;48.148;8.542;2023-08-21T02:58:07;15.40;;;12.60;;
19861;SDS011;10093;48.148;8.542;2023-08-21T03:00:32;14.38;;;12.23;;
19861;SDS011;10093;48.148;8.542;2023-08-21T03:02:58;14.55;;;12.70;;
19861;SDS011;10093;48.148;8.542;2023-08-21T03:05:24;15.98;;;13.32;;
19861;SDS011;10093;48.148;8.542;2023-08-21T03:07:50;15.73;;;13.48;;
19861;SDS011;10093;48.148;8.542;2023-08-21T03:10:16;16.70;;;13.82;;
19861;SDS011;10093;48.148;8.542;2023-08-21T03:12:41;17.55;;;13.52;;
19861;SDS011;10093;48.148;8.542;2023-08-21T03:15:07;16.02;;;13.52;;
19861;SDS011;10093;48.148;8.542;2023-08-21T03:17:33;15.07;;;13.50;;
19861;SDS011;10093;48.148;8.542;2023-08-21T03:19:58;17.00;;;13.57;;
19861;SDS011;10093;48.148;8.542;2023-08-21T03:22:24;16.90;;;12.07;;
19861;SDS011;10093;48.148;8.542;2023-08-21T03:24:50;16.45;;;12.55;;
19861;SDS011;10093;48.148;8.542;2023-08-21T03:27:15;15.10;;;12.68;;
19861;SDS011;10093;48.148;8.542;2023-08-21T03:29:44;13.27;;;11.80;;
19861;SDS011;10093;48.148;8.542;2023-08-21T03:32:16;15.98;;;12.45;;
19861;SDS011;10093;48.148;8.542;2023-08-21T03:34:42;17.10;;;12.57;;
19861;SDS011;10093;48.148;8.542;2023-08-21T03:37:08;15.35;;;12.52;;
19861;SDS011;10093;48.148;8.542;2023-08-21T03:39:34;16.20;;;12.68;;
19861;SDS011;10093;48.148;8.542;2023-08-21T03:41:59;20.88;;;13.00;;
19861;SDS011;10093;48.148;8.542;2023-08-21T03:44:25;16.90;;;12.27;;
19861;SDS011;10093;48.148;8.542;2023-08-21T03:46:50;14.63;;;13.13;;
19861;SDS011;10093;48.148;8.542;2023-08-21T03:49:16;19.13;;;15.23;;
19861;SDS011;10093;48.148;8.542;2023-08-21T03:51:42;17.42;;;13.90;;
19861;SDS011;10093;48.148;8.542;2023-08-21T03:54:07;14.25;;;12.70;;
19861;SDS011;10093;48.148;8.542;2023-08-21T03:56:33;13.52;;;12.10;;
19861;SDS011;10093;48.148;8.542;2023-08-21T03:58:59;16.10;;;13.73;;
19861;SDS011;10093;48.148;8.542;2023-08-21T04:01:24;18.05;;;15.70;;
19861;SDS011;10093;48.148;8.542;2023-08-21T04:03:50;16.27;;;13.60;;
19861;SDS011;10093;48.148;8.542;2023-08-21T04:06:16;21.77;;;14.57;;
19861;SDS011;10093;48.148;8.542;2023-08-21T04:08:41;20.05;;;14.38;;
19861;SDS011;10093;48.148;8.542;2023-08-21T04:11:07;16.65;;;14.32;;
19861;SDS011;10093;48.148;8.542;2023-08-21T04:13:33;19.02;;;15.18;;
19861;SDS011;10093;48.148;8.542;2023-08-21T04:15:58;19.17;;;15.10;;
19861;SDS011;10093;48.148;8.542;2023-08-21T04:18:24;19.08;;;14.40;;
19861;SDS011;10093;48.148;8.542;2023-08-21T04:20:50;15.02;;;13.48;;
19861;SDS011;10093;48.148;8.542;2023-08-21T04:23:15;14.63;;;12.80;;
19861;SDS011;10093;48.148;8.542;2023-08-21T04:25:41;17.90;;;12.57;;
19861;SDS011;10093;48.148;8.542;2023-08-21T04:28:08;13.40;;;11.93;;
19861;SDS011;10093;48.148;8.542;2023-08-21T04:30:33;16.90;;;11.95;;
19861;SDS011;10093;48.148;8.542;2023-08-21T04:32:59;16.92;;;12.40;;
19861;SDS011;10093;48.148;8.542;2023-08-21T04:35:25;16.65;;;13.95;;
19861;SDS011;10093;48.148;8.542;2023-08-21T04:37:51;17.30;;;14.18;;
19861;SDS011;10093;48.148;8.542;2023-08-21T04:40:16;16.45;;;14.15;;
19861;SDS011;10093;48.148;8.542;2023-08-21T04:42:45;15.18;;;13.68;;
19861;SDS011;10093;48.148;8.542;2023-08-21T04:45:10;20.75;;;14.10;;
19861;SDS011;10093;48.148;8.542;2023-08-21T04:47:36;16.00;;;13.20;;
19861;SDS011;10093;48.148;8.542;2023-08-21T04:50:02;17.90;;;13.18;;
19861;SDS011;10093;48.148;8.542;2023-08-21T04:52:28;15.32;;;12.13;;
19861;SDS011;10093;48.148;8.542;2023-08-21T04:54:54;14.02;;;12.60;;
19861;SDS011;10093;48.148;8.542;2023-08-21T04:57:19;12.25;;;11.02;;
19861;SDS011;10093;48.148;8.542;2023-08-21T04:59:48;13.02;;;11.73;;
19861;SDS011;10093;48.148;8.542;2023-08-21T05:02:14;14.98;;;11.45;;
19861;SDS011;10093;48.148;8.542;2023-08-21T05:04:39;14.98;;;12.25;;
19861;SDS011;10093;48.148;8.542;2023-08-21T05:07:05;14.15;;;11.75;;
19861;SDS011;10093;48.148;8.542;2023-08-21T05:09:31;12.30;;;10.98;;
19861;SDS011;10093;48.148;8.542;2023-08-21T05:11:57;15.35;;;11.15;;
19861;SDS011;10093;48.148;8.542;2023-08-21T05:14:23;12.80;;;10.18;;
19861;SDS011;10093;48.148;8.542;2023-08-21T05:16:49;12.00;;;8.43;;
19861;SDS011;10093;48.148;8.542;2023-08-21T05:19:15;9.85;;;7.82;;
19861;SDS011;10093;48.148;8.542;2023-08-21T05:21:41;8.18;;;7.13;;
19861;SDS011;10093;48.148;8.542;2023-08-21T05:24:07;9.45;;;6.35;;
19861;SDS011;10093;48.148;8.542;2023-08-21T05:26:32;6.80;;;6.10;;
19861;SDS011;10093;48.148;8.542;2023-08-21T05:29:00;6.82;;;6.13;;
19861;SDS011;10093;48.148;8.542;2023-08-21T05:31:25;7.88;;;5.60;;
19861;SDS011;10093;48.148;8.542;2023-08-21T05:33:51;5.15;;;4.60;;
19861;SDS011;10093;48.148;8.542;2023-08-21T05:36:17;8.68;;;4.80;;
19861;SDS011;10093;48.148;8.542;2023-08-21T05:38:42;6.65;;;4.75;;
19861;SDS011;10093;48.148;8.542;2023-08-21T05:41:08;6.63;;;5.00;;
19861;SDS011;10093;48.148;8.542;2023-08-21T05:43:34;7.32;;;4.72;;
19861;SDS011;10093;48.148;8.542;2023-08-21T05:45:59;5.40;;;4.88;;
19861;SDS011;10093;48.148;8.542;2023-08-21T05:48:25;5.45;;;4.18;;
19861;SDS011;10093;48.148;8.542;2023-08-21T05:50:51;8.02;;;4.30;;
19861;SDS011;10093;48.148;8.542;2023-08-21T05:53:17;4.57;;;4.15;;
19861;SDS011;10093;48.148;8.542;2023-08-21T05:55:43;5.40;;;4.75;;
19861;SDS011;10093;48.148;8.542;2023-08-21T05:58:09;5.05;;;4.40;;
19861;SDS011;10093;48.148;8.542;2023-08-21T06:00:34;4.95;;;3.97;;
19861;SDS011;10093;48.148;8.542;2023-08-21T06:03:01;4.80;;;4.28;;
19861;SDS011;10093;48.148;8.542;2023-08-21T06:05:26;4.60;;;4.20;;
19861;SDS011;10093;48.148;8.542;2023-08-21T06:07:52;4.57;;;4.18;;
19861;SDS011;10093;48.148;8.542;2023-08-21T06:10:18;6.20;;;4.18;;
19861;SDS011;10093;48.148;8.542;2023-08-21T06:12:43;4.45;;;4.05;;
19861;SDS011;10093;48.148;8.542;2023-08-21T06:15:09;4.72;;;4.32;;
19861;SDS011;10093;48.148;8.542;2023-08-21T06:17:35;7.53;;;4.03;;
19861;SDS011;10093;48.148;8.542;2023-08-21T06:20:02;6.88;;;4.00;;
19861;SDS011;10093;48.148;8.542;2023-08-21T06:22:30;8.15;;;3.85;;
19861;SDS011;10093;48.148;8.542;2023-08-21T06:24:56;6.90;;;4.40;;
19861;SDS011;10093;48.148;8.542;2023-08-21T06:27:22;6.40;;;4.15;;
19861;SDS011;10093;48.148;8.542;2023-08-21T06:29:48;10.07;;;4.80;;
19861;SDS011;10093;48.148;8.542;2023-08-21T06:32:13;4.47;;;3.65;;
19861;SDS011;10093;48.148;8.542;2023-08-21T06:34:39;4.38;;;3.97;;
19861;SDS011;10093;48.148;8.542;2023-08-21T06:37:04;3.95;;;3.53;;
19861;SDS011;10093;48.148;8.542;2023-08-21T06:39:30;4.38;;;3.97;;
19861;SDS011;10093;48.148;8.542;2023-08-21T06:41:56;4.25;;;3.85;;
19861;SDS011;10093;48.148;8.542;2023-08-21T06:44:22;4.10;;;3.75;;
19861;SDS011;10093;48.148;8.542;2023-08-21T06:46:47;5.65;;;4.13;;
19861;SDS011;10093;48.148;8.542;2023-08-21T06:49:13;7.68;;;3.58;;
19861;SDS011;10093;48.148;8.542;2023-08-21T06:51:39;5.28;;;4.32;;
19861;SDS011;10093;48.148;8.542;2023-08-21T06:54:04;6.45;;;3.83;;
19861;SDS011;10093;48.148;8.542;2023-08-21T06:56:30;7.85;;;4.22;;
19861;SDS011;10093;48.148;8.542;2023-08-21T06:58:56;4.65;;;3.80;;
19861;SDS011;10093;48.148;8.542;2023-08-21T07:01:22;5.57;;;4.05;;
19861;SDS011;10093;48.148;8.542;2023-08-21T07:03:47;3.88;;;3.58;;
19861;SDS011;10093;48.148;8.542;2023-08-21T07:06:13;5.32;;;3.47;;
19861;SDS011;10093;48.148;8.542;2023-08-21T07:08:39;6.70;;;3.95;;
19861;SDS011;10093;48.148;8.542;2023-08-21T07:11:05;3.97;;;3.67;;
19861;SDS011;10093;48.148;8.542;2023-08-21T07:13:35;4.72;;;4.15;;
19861;SDS011;10093;48.148;8.542;2023-08-21T07:16:01;6.05;;;3.65;;
19861;SDS011;10093;48.148;8.542;2023-08-21T07:18:28;8.05;;;4.10;;
19861;SDS011;10093;48.148;8.542;2023-08-21T07:20:57;5.45;;;3.22;;
19861;SDS011;10093;48.148;8.542;2023-08-21T07:23:23;7.60;;;3.88;;
19861;SDS011;10093;48.148;8.542;2023-08-21T07:25:49;6.32;;;3.97;;
19861;SDS011;10093;48.148;8.542;2023-08-21T07:28:14;11.40;;;5.85;;
19861;SDS011;10093;48.148;8.542;2023-08-21T07:30:40;7.97;;;3.97;;
19861;SDS011;10093;48.148;8.542;2023-08-21T07:33:05;7.45;;;3.83;;
19861;SDS011;10093;48.148;8.542;2023-08-21T07:35:32;8.75;;;4.53;;
19861;SDS011;10093;48.148;8.542;2023-08-21T07:37:58;12.85;;;6.50;;
19861;SDS011;10093;48.148;8.542;2023-08-21T07:40:24;9.18;;;4.30;;
19861;SDS011;10093;48.148;8.542;2023-08-21T07:42:49;9.63;;;4.10;;
19861;SDS011;10093;48.148;8.542;2023-08-21T07:45:16;8.35;;;4.57;;
19861;SDS011;10093;48.148;8.542;2023-08-21T07:47:41;15.48;;;5.22;;
19861;SDS011;10093;48.148;8.542;2023-08-21T07:50:07;20.42;;;5.47;;
19861;SDS011;10093;48.148;8.542;2023-08-21T07:52:34;24.52;;;6.38;;
19861;SDS011;10093;48.148;8.542;2023-08-21T07:55:00;16.52;;;4.45;;
19861;SDS011;10093;48.148;8.542;2023-08-21T07:57:26;16.17;;;4.72;;
19861;SDS011;10093;48.148;8.542;2023-08-21T07:59:53;18.80;;;4.97;;
19861;SDS011;10093;48.148;8.542;2023-08-21T08:02:19;29.60;;;5.10;;
19861;SDS011;10093;48.148;8.542;2023-08-21T08:04:45;26.45;;;5.40;;
19861;SDS011;10093;48.148;8.542;2023-08-21T08:07:11;18.17;;;4.97;;
19861;SDS011;10093;48.148;8.542;2023-08-21T08:09:37;15.23;;;4.47;;
19861;SDS011;10093;48.148;8.542;2023-08-21T08:12:02;11.77;;;4.18;;
19861;SDS011;10093;48.148;8.542;2023-08-21T08:14:28;12.82;;;4.65;;
19861;SDS011;10093;48.148;8.542;2023-08-21T08:16:54;13.38;;;4.47;;
19861;SDS011;10093;48.148;8.542;2023-08-21T08:19:20;12.88;;;4.10;;
19861;SDS011;10093;48.148;8.542;2023-08-21T08:21:45;10.07;;;4.30;;
19861;SDS011;10093;48.148;8.542;2023-08-21T08:24:11;10.57;;;4.72;;
19861;SDS011;10093;48.148;8.542;2023-08-21T08:26:37;12.43;;;4.13;;
19861;SDS011;10093;48.148;8.542;2023-08-21T08:29:03;7.60;;;4.13;;
19861;SDS011;10093;48.148;8.542;2023-08-21T08:31:30;11.13;;;4.30;;
19861;SDS011;10093;48.148;8.542;2023-08-21T08:33:56;8.10;;;3.53;;
19861;SDS011;10093;48.148;8.542;2023-08-21T08:36:22;7.18;;;4.50;;
19861;SDS011;10093;48.148;8.542;2023-08-21T08:38:47;9.77;;;4.70;;
19861;SDS011;10093;48.148;8.542;2023-08-21T08:41:24;14.88;;;4.45;;
19861;SDS011;10093;48.148;8.542;2023-08-21T08:43:55;10.00;;;4.47;;
19861;SDS011;10093;48.148;8.542;2023-08-21T08:46:23;11.27;;;4.10;;
19861;SDS011;10093;48.148;8.542;2023-08-21T08:48:50;11.68;;;4.18;;
19861;SDS011;10093;48.148;8.542;2023-08-21T08:51:16;13.68;;;4.28;;
19861;SDS011;10093;48.148;8.542;2023-08-21T08:53:42;6.45;;;3.50;;
19861;SDS011;10093;48.148;8.542;2023-08-21T08:56:09;7.05;;;3.78;;
19861;SDS011;10093;48.148;8.542;2023-08-21T08:58:34;5.32;;;3.63;;
19861;SDS011;10093;48.148;8.542;2023-08-21T09:01:00;10.75;;;3.90;;
19861;SDS011;10093;48.148;8.542;2023-08-21T09:03:26;7.10;;;3.90;;
19861;SDS011;10093;48.148;8.542;2023-08-21T09:05:52;8.65;;;3.97;;
19861;SDS011;10093;48.148;8.542;2023-08-21T09:08:18;22.58;;;4.38;;
19861;SDS011;10093;48.148;8.542;2023-08-21T09:10:44;7.18;;;4.70;;
19861;SDS011;10093;48.148;8.542;2023-08-21T09:13:16;5.97;;;4.38;;
19861;SDS011;10093;48.148;8.542;2023-08-21T09:15:44;13.30;;;5.28;;
19861;SDS011;10093;48.148;8.542;2023-08-21T09:18:12;9.60;;;4.65;;
19861;SDS011;10093;48.148;8.542;2023-08-21T09:20:39;11.63;;;5.00;;
19861;SDS011;10093;48.148;8.542;2023-08-21T09:23:05;12.45;;;4.93;;
19861;SDS011;10093;48.148;8.542;2023-08-21T09:25:35;10.07;;;4.32;;
19861;SDS011;10093;48.148;8.542;2023-08-21T09:28:06;9.50;;;4.50;;
19861;SDS011;10093;48.148;8.542;2023-08-21T09:30:45;6.57;;;4.38;;
19861;SDS011;10093;48.148;8.542;2023-08-21T09:33:19;8.07;;;4.40;;
19861;SDS011;10093;48.148;8.542;2023-08-21T09:35:46;13.10;;;4.53;;
19861;SDS011;10093;48.148;8.542;2023-08-21T09:38:12;7.60;;;5.10;;
19861;SDS011;10093;48.148;8.542;2023-08-21T09:40:43;8.32;;;4.13;;
19861;SDS011;10093;48.148;8.542;2023-08-21T09:43:16;9.02;;;4.25;;
19861;SDS011;10093;48.148;8.542;2023-08-21T09:45:42;4.43;;;3.83;;
19861;SDS011;10093;48.148;8.542;2023-08-21T09:48:11;7.47;;;4.85;;
19861;SDS011;10093;48.148;8.542;2023-08-21T09:50:38;5.07;;;4.25;;
19861;SDS011;10093;48.148;8.542;2023-08-21T09:53:05;9.30;;;4.28;;
19861;SDS011;10093;48.148;8.542;2023-08-21T09:55:32;7.85;;;4.57;;
19861;SDS011;10093;48.148;8.542;2023-08-21T09:58:01;10.52;;;4.82;;
19861;SDS011;10093;48.148;8.542;2023-08-21T10:00:30;14.60;;;4.57;;
19861;SDS011;10093;48.148;8.542;2023-08-21T10:03:04;8.98;;;4.35;;
19861;SDS011;10093;48.148;8.542;2023-08-21T10:05:32;14.25;;;4.35;;
19861;SDS011;10093;48.148;8.542;2023-08-21T10:08:02;7.85;;;3.83;;
19861;SDS011;10093;48.148;8.542;2023-08-21T10:10:33;6.78;;;4.20;;
19861;SDS011;10093;48.148;8.542;2023-08-21T10:13:00;8.88;;;4.50;;
19861;SDS011;10093;48.148;8.542;2023-08-21T10:15:27;8.32;;;3.80;;
19861;SDS011;10093;48.148;8.542;2023-08-21T10:17:53;10.85;;;4.00;;
19861;SDS011;10093;48.148;8.542;2023-08-21T10:20:24;10.70;;;3.97;;
19861;SDS011;10093;48.148;8.542;2023-08-21T10:22:54;8.35;;;4.10;;
19861;SDS011;10093;48.148;8.542;2023-08-21T10:25:29;13.23;;;4.00;;
19861;SDS011;10093;48.148;8.542;2023-08-21T10:27:55;6.82;;;4.05;;
19861;SDS011;10093;48.148;8.542;2023-08-21T10:32:48;12.00;;;3.65;;
19861;SDS011;10093;48.148;8.542;2023-08-21T10:35:15;5.97;;;4.00;;
19861;SDS011;10093;48.148;8.542;2023-08-21T10:40:30;11.63;;;4.40;;
19861;SDS011;10093;48.148;8.542;2023-08-21T10:42:55;7.95;;;3.90;;
19861;SDS011;10093;48.148;8.542;2023-08-21T10:45:21;5.20;;;3.60;;
19861;SDS011;10093;48.148;8.542;2023-08-21T10:47:47;7.70;;;4.03;;
19861;SDS011;10093;48.148;8.542;2023-08-21T10:50:14;11.13;;;3.97;;
19861;SDS011;10093;48.148;8.542;2023-08-21T10:52:40;8.32;;;4.47;;
19861;SDS011;10093;48.148;8.542;2023-08-21T10:55:10;7.15;;;4.05;;
19861;SDS011;10093;48.148;8.542;2023-08-21T10:57:36;8.88;;;4.18;;
19861;SDS011;10093;48.148;8.542;2023-08-21T11:02:30;7.57;;;3.95;;
19861;SDS011;10093;48.148;8.542;2023-08-21T11:04:57;10.95;;;4.32;;
19861;SDS011;10093;48.148;8.542;2023-08-21T11:07:25;7.82;;;3.83;;
19861;SDS011;10093;48.148;8.542;2023-08-21T11:09:52;9.85;;;3.67;;
19861;SDS011;10093;48.148;8.542;2023-08-21T11:12:18;8.15;;;3.80;;
19861;SDS011;10093;48.148;8.542;2023-08-21T11:14:49;10.32;;;4.50;;
19861;SDS011;10093;48.148;8.542;2023-08-21T11:17:15;12.68;;;4.50;;
19861;SDS011;10093;48.148;8.542;2023-08-21T11:19:41;11.30;;;4.82;;
19861;SDS011;10093;48.148;8.542;2023-08-21T11:22:07;6.32;;;4.35;;
19861;SDS011;10093;48.148;8.542;2023-08-21T11:27:05;8.25;;;4.47;;
19861;SDS011;10093;48.148;8.542;2023-08-21T11:29:39;10.85;;;3.85;;
19861;SDS011;10093;48.148;8.542;2023-08-21T11:34:35;9.40;;;3.83;;
19861;SDS011;10093;48.148;8.542;2023-08-21T11:37:01;15.85;;;4.40;;
19861;SDS011;10093;48.148;8.542;2023-08-21T11:39:26;6.55;;;4.10;;
19861;SDS011;10093;48.148;8.542;2023-08-21T11:42:03;8.95;;;4.45;;
19861;SDS011;10093;48.148;8.542;2023-08-21T11:44:39;8.32;;;4.82;;
19861;SDS011;10093;48.148;8.542;2023-08-21T11:47:05;5.93;;;4.18;;
19861;SDS011;10093;48.148;8.542;2023-08-21T11:49:31;7.68;;;4.95;;
19861;SDS011;10093;48.148;8.542;2023-08-21T11:51:57;8.70;;;4.80;;
19861;SDS011;10093;48.148;8.542;2023-08-21T11:54:22;15.68;;;5.18;;
19861;SDS011;10093;48.148;8.542;2023-08-21T11:56:48;8.45;;;4.68;;
19861;SDS011;10093;48.148;8.542;2023-08-21T11:59:23;11.45;;;4.85;;
19861;SDS011;10093;48.148;8.542;2023-08-21T12:01:51;6.22;;;3.95;;
19861;SDS011;10093;48.148;8.542;2023-08-21T12:04:17;8.20;;;4.70;;
19861;SDS011;10093;48.148;8.542;2023-08-21T12:06:43;7.15;;;4.25;;
19861;SDS011;10093;48.148;8.542;2023-08-21T12:09:10;8.50;;;4.43;;
19861;SDS011;10093;48.148;8.542;2023-08-21T12:11:36;6.07;;;4.07;;
19861;SDS011;10093;48.148;8.542;2023-08-21T12:14:03;7.47;;;4.10;;
19861;SDS011;10093;48.148;8.542;2023-08-21T12:16:29;7.07;;;4.38;;
19861;SDS011;10093;48.148;8.542;2023-08-21T12:18:55;6.38;;;4.18;;
19861;SDS011;10093;48.148;8.542;2023-08-21T12:21:22;5.18;;;4.18;;
19861;SDS011;10093;48.148;8.542;2023-08-21T12:23:49;9.10;;;4.80;;
19861;SDS011;10093;48.148;8.542;2023-08-21T12:26:14;9.00;;;5.10;;
19861;SDS011;10093;48.148;8.542;2023-08-21T12:28:46;8.20;;;4.63;;
19861;SDS011;10093;48.148;8.542;2023-08-21T12:31:13;5.53;;;4.13;;
19861;SDS011;10093;48.148;8.542;2023-08-21T12:33:39;6.22;;;4.10;;
19861;SDS011;10093;48.148;8.542;2023-08-21T12:36:04;9.63;;;4.50;;
19861;SDS011;10093;48.148;8.542;2023-08-21T12:38:30;6.35;;;3.83;;
19861;SDS011;10093;48.148;8.542;2023-08-21T12:40:56;9.90;;;3.92;;
19861;SDS011;10093;48.148;8.542;2023-08-21T12:43:22;7.55;;;3.90;;
19861;SDS011;10093;48.148;8.542;2023-08-21T12:45:47;7.80;;;3.90;;
19861;SDS011;10093;48.148;8.542;2023-08-21T12:48:13;10.02;;;3.90;;
19861;SDS011;10093;48.148;8.542;2023-08-21T12:50:39;6.75;;;4.03;;
19861;SDS011;10093;48.148;8.542;2023-08-21T12:53:05;9.68;;;4.15;;
19861;SDS011;10093;48.148;8.542;2023-08-21T12:55:31;7.40;;;3.65;;
19861;SDS011;10093;48.148;8.542;2023-08-21T12:57:56;9.88;;;3.88;;
19861;SDS011;10093;48.148;8.542;2023-08-21T13:00:22;6.32;;;3.67;;
19861;SDS011;10093;48.148;8.542;2023-08-21T13:02:48;9.10;;;3.90;;
19861;SDS011;10093;48.148;8.542;2023-08-21T13:05:13;12.77;;;3.92;;
19861;SDS011;10093;48.148;8.542;2023-08-21T13:07:39;8.07;;;4.00;;
19861;SDS011;10093;48.148;8.542;2023-08-21T13:10:06;4.07;;;3.50;;
19861;SDS011;10093;48.148;8.542;2023-08-21T13:12:32;9.27;;;3.80;;
19861;SDS011;10093;48.148;8.542;2023-08-21T13:14:58;11.20;;;3.58;;
19861;SDS011;10093;48.148;8.542;2023-08-21T13:17:23;6.72;;;3.85;;
19861;SDS011;10093;48.148;8.542;2023-08-21T13:19:49;6.80;;;4.10;;
19861;SDS011;10093;48.148;8.542;2023-08-21T13:22:17;8.88;;;3.90;;
19861;SDS011;10093;48.148;8.542;2023-08-21T13:24:43;10.07;;;3.92;;
19861;SDS011;10093;48.148;8.542;2023-08-21T13:27:09;8.45;;;4.13;;
19861;SDS011;10093;48.148;8.542;2023-08-21T13:29:35;9.52;;;4.35;;
19861;SDS011;10093;48.148;8.542;2023-08-21T13:32:01;10.48;;;4.03;;
19861;SDS011;10093;48.148;8.542;2023-08-21T13:34:27;6.78;;;4.00;;
19861;SDS011;10093;48.148;8.542;2023-08-21T13:36:53;8.10;;;3.80;;
19861;SDS011;10093;48.148;8.542;2023-08-21T13:39:18;5.57;;;3.85;;
19861;SDS011;10093;48.148;8.542;2023-08-21T13:41:44;12.00;;;3.85;;
19861;SDS011;10093;48.148;8.542;2023-08-21T13:44:10;12.27;;;4.07;;
19861;SDS011;10093;48.148;8.542;2023-08-21T13:46:35;7.50;;;3.92;;
19861;SDS011;10093;48.148;8.542;2023-08-21T13:49:01;6.38;;;3.20;;
19861;SDS011;10093;48.148;8.542;2023-08-21T13:51:27;9.93;;;3.58;;
19861;SDS011;10093;48.148;8.542;2023-08-21T13:53:52;8.80;;;3.58;;
19861;SDS011;10093;48.148;8.542;2023-08-21T13:56:18;7.22;;;4.10;;
19861;SDS011;10093;48.148;8.542;2023-08-21T13:58:43;7.68;;;3.30;;
19861;SDS011;10093;48.148;8.542;2023-08-21T14:01:09;4.93;;;3.33;;
19861;SDS011;10093;48.148;8.542;2023-08-21T14:03:35;8.50;;;3.75;;
19861;SDS011;10093;48.148;8.542;2023-08-21T14:06:00;6.55;;;3.63;;
19861;SDS011;10093;48.148;8.542;2023-08-21T14:08:26;13.50;;;4.30;;
19861;SDS011;10093;48.148;8.542;2023-08-21T14:10:51;8.57;;;4.00;;
19861;SDS011;10093;48.148;8.542;2023-08-21T14:13:17;6.18;;;3.70;;
19861;SDS011;10093;48.148;8.542;2023-08-21T14:15:43;6.72;;;3.80;;
19861;SDS011;10093;48.148;8.542;2023-08-21T14:18:08;8.00;;;3.80;;
19861;SDS011;10093;48.148;8.542;2023-08-21T14:20:34;8.80;;;3.63;;
19861;SDS011;10093;48.148;8.542;2023-08-21T14:23:00;5.85;;;3.83;;
19861;SDS011;10093;48.148;8.542;2023-08-21T14:25:25;5.88;;;3.50;;
19861;SDS011;10093;48.148;8.542;2023-08-21T14:27:51;11.60;;;3.80;;
19861;SDS011;10093;48.148;8.542;2023-08-21T14:30:17;8.60;;;4.28;;
19861;SDS011;10093;48.148;8.542;2023-08-21T14:32:42;9.02;;;3.88;;
19861;SDS011;10093;48.148;8.542;2023-08-21T14:35:08;6.43;;;3.97;;
19861;SDS011;10093;48.148;8.542;2023-08-21T14:37:34;5.35;;;4.10;;
19861;SDS011;10093;48.148;8.542;2023-08-21T14:40:00;4.15;;;3.85;;
19861;SDS011;10093;48.148;8.542;2023-08-21T14:42:31;9.25;;;4.00;;
19861;SDS011;10093;48.148;8.542;2023-08-21T14:44:57;7.53;;;3.60;;
19861;SDS011;10093;48.148;8.542;2023-08-21T14:47:22;5.22;;;4.07;;